createdAt,value
2022-09-13T00:00:11.829Z,110.81
2022-09-13T00:01:11.892Z,110.17
2022-09-13T00:02:13.335Z,110.81
2022-09-13T00:03:11.780Z,110.81
2022-09-13T00:04:11.770Z,109.84
2022-09-13T00:05:11.761Z,109.84
2022-09-13T00:06:11.780Z,110.17
2022-09-13T00:07:11.731Z,111.13
2022-09-13T00:08:11.720Z,110.17
2022-09-13T00:09:11.711Z,110.17
2022-09-13T00:10:11.690Z,110.49
2022-09-13T00:11:11.722Z,109.84
2022-09-13T00:12:12.460Z,109.84
2022-09-13T00:13:12.450Z,109.84
2022-09-13T00:14:11.644Z,110.81
2022-09-13T00:15:11.635Z,110.49
2022-09-13T00:16:11.664Z,110.49
2022-09-13T00:17:11.613Z,110.49
2022-09-13T00:18:11.583Z,110.49
2022-09-13T00:19:11.589Z,110.81
2022-09-13T00:20:11.563Z,111.13
2022-09-13T00:21:11.611Z,110.17
2022-09-13T00:22:11.552Z,111.46
2022-09-13T00:23:11.598Z,110.17
2022-09-13T00:24:11.990Z,109.84
2022-09-13T00:25:12.377Z,110.17
2022-09-13T00:26:11.852Z,110.49
2022-09-13T00:27:11.624Z,110.81
2022-09-13T00:28:11.569Z,110.17
2022-09-13T00:29:12.222Z,110.81
2022-09-13T00:30:11.715Z,109.84
2022-09-13T00:31:13.847Z,110.49
2022-09-13T00:32:11.442Z,110.17
2022-09-13T00:33:11.400Z,109.84
2022-09-13T00:34:11.380Z,110.17
2022-09-13T00:35:11.369Z,110.81
2022-09-13T00:36:11.380Z,109.52
2022-09-13T00:37:11.350Z,109.84
2022-09-13T00:38:11.338Z,110.49
2022-09-13T00:39:12.090Z,110.17
2022-09-13T00:40:11.371Z,110.17
2022-09-13T00:41:11.320Z,109.52
2022-09-13T00:42:11.280Z,109.52
2022-09-13T00:43:11.271Z,110.17
2022-09-13T00:44:11.269Z,110.81
2022-09-13T00:45:11.240Z,109.52
2022-09-13T00:46:11.344Z,110.17
2022-09-13T00:47:11.212Z,109.84
2022-09-13T00:48:11.218Z,110.17
2022-09-13T00:49:11.191Z,110.49
2022-09-13T00:50:11.170Z,109.84
2022-09-13T00:51:11.190Z,110.17
2022-09-13T00:52:11.140Z,109.52
2022-09-13T00:53:11.140Z,110.81
2022-09-13T00:54:12.563Z,110.81
2022-09-13T00:55:11.110Z,110.17
2022-09-13T00:56:11.190Z,109.84
2022-09-13T00:57:11.084Z,109.52
2022-09-13T00:58:11.069Z,109.84
2022-09-13T00:59:11.061Z,110.49
2022-09-13T01:00:11.044Z,110.17
2022-09-13T01:01:11.092Z,109.84
2022-09-13T01:02:11.064Z,111.13
2022-09-13T01:03:11.009Z,109.84
2022-09-13T01:04:12.859Z,110.49
2022-09-13T01:05:10.981Z,109.84
2022-09-13T01:06:10.989Z,110.49
2022-09-13T01:07:10.966Z,110.81
2022-09-13T01:08:10.944Z,110.81
2022-09-13T01:09:10.928Z,110.49
2022-09-13T01:10:10.910Z,110.81
2022-09-13T01:11:10.930Z,109.84
2022-09-13T01:12:10.880Z,110.81
2022-09-13T01:13:10.889Z,110.17
2022-09-13T01:14:10.908Z,110.49
2022-09-13T01:15:10.859Z,110.49
2022-09-13T01:16:10.912Z,109.84
2022-09-13T01:17:10.830Z,110.81
2022-09-13T01:18:10.831Z,110.17
2022-09-13T01:19:10.803Z,109.52
2022-09-13T01:20:10.791Z,110.81
2022-09-13T01:21:10.802Z,110.17
2022-09-13T01:22:15.061Z,109.84
2022-09-13T01:23:11.529Z,110.49
2022-09-13T01:24:10.760Z,111.13
2022-09-13T01:25:11.670Z,110.81
2022-09-13T01:26:10.713Z,110.49
2022-09-13T01:27:10.741Z,110.17
2022-09-13T01:28:10.680Z,110.49
2022-09-13T01:29:10.684Z,109.52
2022-09-13T01:30:10.651Z,109.84
2022-09-13T01:31:10.650Z,109.52
2022-09-13T01:32:10.659Z,110.17
2022-09-13T01:33:10.618Z,109.84
2022-09-13T01:34:10.612Z,109.84
2022-09-13T01:35:10.630Z,110.49
2022-09-13T01:36:10.570Z,109.84
2022-09-13T01:37:10.590Z,110.17
2022-09-13T01:38:10.547Z,109.52
2022-09-13T01:39:10.541Z,110.49
2022-09-13T01:40:10.567Z,111.13
2022-09-13T01:41:10.520Z,110.17
2022-09-13T01:42:10.524Z,110.49
2022-09-13T01:43:10.481Z,107.27
2022-09-13T01:44:10.471Z,109.84
2022-09-13T01:45:10.460Z,109.84
2022-09-13T01:46:10.459Z,110.17
2022-09-13T01:47:10.482Z,111.13
2022-09-13T01:48:10.420Z,111.13
2022-09-13T01:49:10.399Z,110.17
2022-09-13T01:50:10.398Z,107.59
2022-09-13T01:51:11.331Z,110.49
2022-09-13T01:52:10.417Z,110.17
2022-09-13T01:53:10.363Z,109.52
2022-09-13T01:54:10.340Z,110.17
2022-09-13T01:55:10.339Z,109.52
2022-09-13T01:56:10.310Z,109.84
2022-09-13T01:57:10.338Z,110.81
2022-09-13T01:58:10.288Z,110.49
2022-09-13T01:59:10.314Z,109.52
2022-09-13T02:00:10.301Z,109.52
2022-09-13T02:01:10.278Z,109.52
2022-09-13T02:02:10.318Z,110.81
2022-09-13T02:03:10.231Z,109.84
2022-09-13T02:04:10.238Z,110.81
2022-09-13T02:05:10.201Z,109.52
2022-09-13T02:06:10.181Z,110.81
2022-09-13T02:07:10.200Z,109.84
2022-09-13T02:08:10.170Z,109.52
2022-09-13T02:09:10.141Z,110.17
2022-09-13T02:10:11.593Z,109.84
2022-09-13T02:11:10.121Z,111.13
2022-09-13T02:12:10.130Z,110.49
2022-09-13T02:13:10.089Z,109.84
2022-09-13T02:14:10.089Z,109.84
2022-09-13T02:15:10.070Z,110.81
2022-09-13T02:16:10.094Z,109.84
2022-09-13T02:17:11.527Z,110.17
2022-09-13T02:18:10.033Z,110.17
2022-09-13T02:19:10.030Z,110.81
2022-09-13T02:20:10.050Z,110.81
2022-09-13T02:21:09.991Z,110.81
2022-09-13T02:22:10.002Z,110.49
2022-09-13T02:23:09.970Z,109.84
2022-09-13T02:24:09.950Z,109.84
2022-09-13T02:25:09.962Z,110.17
2022-09-13T02:26:09.920Z,110.49
2022-09-13T02:27:09.953Z,110.17
2022-09-13T02:28:09.890Z,110.81
2022-09-13T02:29:09.888Z,110.81
2022-09-13T02:30:09.871Z,110.17
2022-09-13T02:31:09.868Z,110.17
2022-09-13T02:32:09.872Z,110.81
2022-09-13T02:33:09.839Z,111.13
2022-09-13T02:34:09.820Z,110.81
2022-09-13T02:35:09.808Z,110.49
2022-09-13T02:36:09.819Z,110.17
2022-09-13T02:37:09.819Z,109.84
2022-09-13T02:38:09.760Z,109.84
2022-09-13T02:39:09.781Z,109.84
2022-09-13T02:40:09.805Z,110.17
2022-09-13T02:41:09.740Z,110.17
2022-09-13T02:42:12.473Z,109.84
2022-09-13T02:43:09.702Z,109.84
2022-09-13T02:44:09.688Z,109.52
2022-09-13T02:45:09.683Z,110.17
2022-09-13T02:46:09.740Z,110.17
2022-09-13T02:47:09.690Z,110.81
2022-09-13T02:48:10.391Z,109.84
2022-09-13T02:49:09.628Z,110.49
2022-09-13T02:50:09.612Z,109.52
2022-09-13T02:51:09.601Z,107.91
2022-09-13T02:52:09.610Z,109.84
2022-09-13T02:53:09.593Z,110.17
2022-09-13T02:54:09.560Z,109.84
2022-09-13T02:55:09.558Z,111.46
2022-09-13T02:56:09.539Z,109.84
2022-09-13T02:57:09.560Z,110.49
2022-09-13T02:58:09.500Z,110.81
2022-09-13T02:59:09.515Z,110.81
2022-09-13T03:00:09.534Z,109.84
2022-09-13T03:01:09.566Z,110.81
2022-09-13T03:02:09.558Z,109.84
2022-09-13T03:03:09.440Z,110.17
2022-09-13T03:04:09.429Z,109.52
2022-09-13T03:05:09.422Z,111.13
2022-09-13T03:06:09.400Z,109.52
2022-09-13T03:07:09.438Z,109.52
2022-09-13T03:08:09.370Z,109.52
2022-09-13T03:09:09.377Z,109.84
2022-09-13T03:10:09.361Z,110.17
2022-09-13T03:11:09.340Z,110.49
2022-09-13T03:12:09.350Z,110.17
2022-09-13T03:13:09.332Z,110.17
2022-09-13T03:14:09.321Z,110.81
2022-09-13T03:15:09.291Z,111.46
2022-09-13T03:16:10.096Z,111.13
2022-09-13T03:17:09.289Z,110.81
2022-09-13T03:18:09.240Z,110.49
2022-09-13T03:19:09.231Z,110.49
2022-09-13T03:20:09.232Z,110.81
2022-09-13T03:21:10.151Z,109.84
2022-09-13T03:22:09.221Z,110.49
2022-09-13T03:23:09.184Z,110.17
2022-09-13T03:24:09.173Z,110.81
2022-09-13T03:25:09.152Z,110.17
2022-09-13T03:26:09.141Z,110.49
2022-09-13T03:27:09.160Z,110.49
2022-09-13T03:28:09.110Z,110.49
2022-09-13T03:29:09.111Z,111.13
2022-09-13T03:30:09.093Z,107.91
2022-09-13T03:31:09.081Z,111.13
2022-09-13T03:32:09.120Z,109.52
2022-09-13T03:33:09.054Z,110.81
2022-09-13T03:34:09.031Z,110.17
2022-09-13T03:35:09.030Z,110.81
2022-09-13T03:36:09.440Z,110.49
2022-09-13T03:37:09.033Z,111.13
2022-09-13T03:38:08.981Z,109.84
2022-09-13T03:39:13.034Z,110.17
2022-09-13T03:40:11.439Z,110.17
2022-09-13T03:41:08.950Z,110.17
2022-09-13T03:42:08.961Z,110.17
2022-09-13T03:43:08.923Z,110.17
2022-09-13T03:44:08.981Z,110.17
2022-09-13T03:45:08.902Z,111.13
2022-09-13T03:46:08.954Z,110.81
2022-09-13T03:47:08.890Z,111.13
2022-09-13T03:48:08.851Z,111.13
2022-09-13T03:49:09.353Z,110.49
2022-09-13T03:50:08.825Z,110.81
2022-09-13T03:51:08.810Z,107.91
2022-09-13T03:52:08.823Z,111.46
2022-09-13T03:53:08.793Z,110.17
2022-09-13T03:54:08.791Z,110.17
2022-09-13T03:55:08.779Z,110.17
2022-09-13T03:56:08.753Z,109.84
2022-09-13T03:57:08.772Z,110.49
2022-09-13T03:58:08.721Z,110.17
2022-09-13T03:59:08.711Z,110.17
2022-09-13T04:00:08.711Z,109.84
2022-09-13T04:01:08.744Z,111.13
2022-09-13T04:02:08.753Z,111.13
2022-09-13T04:03:08.661Z,110.17
2022-09-13T04:04:08.642Z,109.84
2022-09-13T04:05:08.635Z,110.17
2022-09-13T04:06:10.061Z,110.49
2022-09-13T04:07:08.651Z,110.17
2022-09-13T04:08:08.634Z,110.81
2022-09-13T04:09:08.582Z,107.91
2022-09-13T04:10:13.007Z,110.81
2022-09-13T04:11:09.574Z,109.84
2022-09-13T04:12:08.569Z,110.17
2022-09-13T04:13:08.521Z,109.84
2022-09-13T04:14:08.912Z,110.49
2022-09-13T04:15:08.583Z,107.91
2022-09-13T04:16:08.653Z,110.81
2022-09-13T04:17:08.501Z,111.13
2022-09-13T04:18:08.461Z,109.84
2022-09-13T04:19:08.452Z,110.17
2022-09-13T04:20:08.441Z,110.49
2022-09-13T04:21:08.432Z,110.49
2022-09-13T04:22:08.442Z,111.13
2022-09-13T04:23:08.400Z,111.13
2022-09-13T04:24:08.379Z,110.49
2022-09-13T04:25:08.371Z,110.17
2022-09-13T04:26:08.362Z,110.81
2022-09-13T04:27:08.351Z,110.81
2022-09-13T04:28:08.384Z,110.49
2022-09-13T04:29:08.271Z,109.84
2022-09-13T04:30:08.311Z,110.49
2022-09-13T04:31:08.312Z,110.49
2022-09-13T04:32:08.345Z,107.59
2022-09-13T04:33:08.266Z,110.49
2022-09-13T04:34:08.202Z,110.81
2022-09-13T04:35:08.200Z,110.17
2022-09-13T04:36:08.181Z,110.49
2022-09-13T04:37:09.104Z,109.84
2022-09-13T04:38:08.172Z,111.46
2022-09-13T04:39:08.136Z,107.91
2022-09-13T04:40:08.265Z,110.49
2022-09-13T04:41:08.132Z,110.17
2022-09-13T04:42:08.102Z,110.81
2022-09-13T04:43:08.142Z,110.17
2022-09-13T04:44:08.063Z,109.84
2022-09-13T04:45:08.072Z,109.84
2022-09-13T04:46:08.408Z,110.17
2022-09-13T04:47:08.042Z,110.81
2022-09-13T04:48:08.051Z,111.13
2022-09-13T04:49:08.010Z,110.81
2022-09-13T04:50:07.992Z,110.17
2022-09-13T04:51:07.983Z,111.13
2022-09-13T04:52:08.706Z,109.84
2022-09-13T04:53:07.982Z,109.52
2022-09-13T04:54:10.895Z,111.13
2022-09-13T04:55:09.692Z,111.13
2022-09-13T04:56:08.211Z,110.49
2022-09-13T04:57:07.902Z,109.84
2022-09-13T04:58:07.920Z,110.81
2022-09-13T04:59:07.879Z,111.13
2022-09-13T05:00:07.860Z,110.17
2022-09-13T05:01:07.878Z,110.81
2022-09-13T05:02:07.880Z,110.17
2022-09-13T05:03:07.853Z,110.49
2022-09-13T05:04:07.813Z,111.13
2022-09-13T05:05:07.809Z,111.13
2022-09-13T05:06:07.796Z,111.13
2022-09-13T05:07:07.774Z,110.17
2022-09-13T05:08:07.799Z,109.84
2022-09-13T05:09:07.751Z,109.84
2022-09-13T05:10:07.732Z,110.17
2022-09-13T05:11:07.742Z,111.13
2022-09-13T05:12:07.702Z,110.81
2022-09-13T05:13:07.724Z,110.49
2022-09-13T05:14:07.761Z,110.17
2022-09-13T05:15:07.665Z,109.52
2022-09-13T05:16:07.734Z,110.49
2022-09-13T05:17:08.622Z,111.13
2022-09-13T05:18:07.652Z,110.17
2022-09-13T05:19:07.625Z,110.81
2022-09-13T05:20:07.592Z,108.55
2022-09-13T05:21:07.600Z,109.84
2022-09-13T05:22:07.571Z,110.17
2022-09-13T05:23:07.620Z,110.17
2022-09-13T05:24:07.546Z,110.49
2022-09-13T05:25:07.630Z,110.49
2022-09-13T05:26:07.534Z,109.84
2022-09-13T05:27:07.512Z,111.13
2022-09-13T05:28:07.523Z,110.49
2022-09-13T05:29:07.482Z,110.81
2022-09-13T05:30:07.512Z,110.49
2022-09-13T05:31:07.618Z,110.17
2022-09-13T05:32:07.452Z,109.84
2022-09-13T05:33:07.717Z,110.17
2022-09-13T05:34:07.418Z,111.13
2022-09-13T05:35:07.402Z,110.81
2022-09-13T05:36:07.436Z,110.17
2022-09-13T05:37:07.382Z,111.13
2022-09-13T05:38:07.432Z,110.81
2022-09-13T05:39:28.974Z,110.49
2022-09-13T05:40:11.651Z,109.84
2022-09-13T05:41:08.132Z,110.49
2022-09-13T05:42:07.313Z,110.17
2022-09-13T05:43:07.342Z,110.49
2022-09-13T05:44:12.887Z,109.84
2022-09-13T05:45:08.273Z,110.17
2022-09-13T05:46:07.302Z,110.17
2022-09-13T05:47:07.264Z,109.52
2022-09-13T05:48:07.284Z,110.81
2022-09-13T05:49:07.246Z,109.84
2022-09-13T05:50:15.845Z,110.17
2022-09-13T05:51:08.192Z,108.23
2022-09-13T05:52:07.183Z,110.81
2022-09-13T05:53:07.200Z,110.49
2022-09-13T05:54:07.154Z,110.17
2022-09-13T05:55:07.162Z,110.49
2022-09-13T05:56:07.143Z,109.52
2022-09-13T05:57:07.244Z,110.81
2022-09-13T05:58:07.135Z,110.81
2022-09-13T05:59:07.094Z,111.13
2022-09-13T06:00:07.084Z,110.17
2022-09-13T06:01:07.062Z,110.49
2022-09-13T06:02:07.123Z,111.13
2022-09-13T06:03:07.083Z,110.17
2022-09-13T06:04:07.024Z,110.49
2022-09-13T06:05:07.013Z,111.13
2022-09-13T06:06:07.001Z,110.17
2022-09-13T06:07:06.985Z,110.17
2022-09-13T06:08:07.023Z,110.49
2022-09-13T06:09:07.712Z,110.17
2022-09-13T06:10:06.954Z,108.55
2022-09-13T06:11:06.930Z,111.13
2022-09-13T06:12:06.930Z,110.17
2022-09-13T06:13:06.925Z,110.49
2022-09-13T06:14:06.893Z,111.13
2022-09-13T06:15:07.006Z,110.17
2022-09-13T06:16:07.877Z,111.13
2022-09-13T06:17:06.853Z,110.81
2022-09-13T06:18:06.944Z,111.13
2022-09-13T06:19:06.863Z,109.84
2022-09-13T06:20:06.847Z,110.17
2022-09-13T06:21:06.794Z,110.17
2022-09-13T06:22:06.793Z,110.49
2022-09-13T06:23:06.801Z,110.17
2022-09-13T06:24:06.832Z,109.52
2022-09-13T06:25:06.753Z,110.17
2022-09-13T06:26:06.742Z,111.13
2022-09-13T06:27:06.724Z,110.49
2022-09-13T06:28:06.743Z,111.13
2022-09-13T06:29:06.693Z,110.17
2022-09-13T06:30:06.687Z,110.81
2022-09-13T06:31:06.751Z,111.46
2022-09-13T06:32:06.664Z,110.17
2022-09-13T06:33:06.663Z,110.49
2022-09-13T06:34:06.635Z,110.49
2022-09-13T06:35:06.633Z,110.49
2022-09-13T06:36:06.605Z,111.46
2022-09-13T06:37:06.583Z,111.13
2022-09-13T06:38:06.623Z,111.13
2022-09-13T06:39:06.569Z,110.49
2022-09-13T06:40:06.650Z,110.17
2022-09-13T06:41:07.458Z,110.81
2022-09-13T06:42:06.534Z,110.49
2022-09-13T06:43:06.535Z,111.13
2022-09-13T06:44:06.500Z,110.81
2022-09-13T06:45:06.483Z,110.81
2022-09-13T06:46:06.532Z,110.81
2022-09-13T06:47:06.455Z,110.17
2022-09-13T06:48:06.476Z,110.49
2022-09-13T06:49:06.435Z,110.49
2022-09-13T06:50:06.424Z,110.81
2022-09-13T06:51:06.414Z,109.84
2022-09-13T06:52:06.393Z,110.17
2022-09-13T06:53:06.405Z,111.13
2022-09-13T06:54:06.381Z,110.81
2022-09-13T06:55:09.605Z,110.49
2022-09-13T06:56:07.343Z,111.13
2022-09-13T06:57:06.344Z,110.49
2022-09-13T06:58:06.342Z,110.81
2022-09-13T06:59:06.294Z,110.17
2022-09-13T07:00:06.309Z,110.17
2022-09-13T07:01:06.314Z,110.81
2022-09-13T07:02:06.350Z,110.81
2022-09-13T07:03:06.291Z,111.13
2022-09-13T07:04:06.246Z,110.49
2022-09-13T07:05:06.221Z,111.13
2022-09-13T07:06:06.244Z,110.49
2022-09-13T07:07:06.195Z,110.81
2022-09-13T07:08:06.214Z,110.81
2022-09-13T07:09:06.176Z,110.81
2022-09-13T07:10:06.176Z,110.81
2022-09-13T07:11:06.148Z,111.13
2022-09-13T07:12:06.136Z,110.81
2022-09-13T07:13:06.145Z,110.49
2022-09-13T07:14:06.105Z,110.81
2022-09-13T07:15:06.085Z,110.81
2022-09-13T07:16:06.140Z,109.20
2022-09-13T07:17:06.075Z,110.81
2022-09-13T07:18:06.075Z,111.46
2022-09-13T07:19:06.039Z,110.81
2022-09-13T07:20:06.026Z,110.81
2022-09-13T07:21:06.025Z,111.46
2022-09-13T07:22:06.509Z,111.13
2022-09-13T07:23:06.015Z,110.49
2022-09-13T07:24:05.985Z,110.81
2022-09-13T07:25:06.014Z,110.49
2022-09-13T07:26:05.956Z,110.49
2022-09-13T07:27:05.936Z,111.13
2022-09-13T07:28:05.955Z,110.81
2022-09-13T07:29:06.747Z,111.46
2022-09-13T07:30:05.906Z,111.13
2022-09-13T07:31:06.001Z,110.81
2022-09-13T07:32:06.687Z,111.46
2022-09-13T07:33:06.876Z,110.81
2022-09-13T07:34:06.367Z,110.81
2022-09-13T07:35:05.826Z,110.49
2022-09-13T07:36:05.816Z,110.81
2022-09-13T07:37:06.053Z,110.17
2022-09-13T07:38:05.936Z,111.13
2022-09-13T07:39:08.225Z,111.13
2022-09-13T07:40:06.030Z,110.81
2022-09-13T07:41:05.780Z,109.20
2022-09-13T07:42:10.955Z,111.13
2022-09-13T07:43:05.877Z,110.81
2022-09-13T07:44:09.119Z,110.81
2022-09-13T07:45:05.719Z,110.81
2022-09-13T07:46:14.676Z,111.46
2022-09-13T07:47:06.517Z,111.13
2022-09-13T07:48:05.747Z,111.13
2022-09-13T07:49:05.648Z,111.46
2022-09-13T07:50:05.639Z,110.81
2022-09-13T07:51:06.569Z,110.81
2022-09-13T07:52:05.609Z,110.81
2022-09-13T07:53:05.627Z,110.81
2022-09-13T07:54:07.147Z,111.46
2022-09-13T07:55:05.571Z,110.81
2022-09-13T07:56:05.648Z,111.13
2022-09-13T07:57:05.560Z,111.46
2022-09-13T07:58:05.682Z,109.84
2022-09-13T07:59:05.518Z,111.13
2022-09-13T08:00:05.508Z,111.13
2022-09-13T08:01:05.547Z,110.81
2022-09-13T08:02:07.427Z,111.46
2022-09-13T08:03:05.488Z,110.17
2022-09-13T08:04:05.458Z,110.81
2022-09-13T08:05:05.439Z,111.13
2022-09-13T08:06:05.439Z,109.84
2022-09-13T08:07:07.923Z,110.81
2022-09-13T08:08:06.249Z,111.46
2022-09-13T08:09:05.429Z,111.46
2022-09-13T08:10:05.380Z,111.78
2022-09-13T08:11:05.390Z,111.46
2022-09-13T08:12:05.419Z,111.46
2022-09-13T08:13:05.360Z,111.13
2022-09-13T08:14:05.350Z,111.13
2022-09-13T08:15:06.120Z,111.13
2022-09-13T08:16:05.405Z,110.81
2022-09-13T08:17:06.220Z,111.13
2022-09-13T08:18:05.340Z,111.46
2022-09-13T08:19:06.827Z,111.46
2022-09-13T08:20:06.324Z,111.46
2022-09-13T08:21:06.058Z,111.13
2022-09-13T08:22:05.223Z,111.46
2022-09-13T08:23:05.210Z,111.13
2022-09-13T08:24:10.318Z,111.46
2022-09-13T08:25:05.180Z,111.13
2022-09-13T08:26:05.174Z,111.13
2022-09-13T08:27:07.901Z,111.78
2022-09-13T08:28:05.530Z,111.46
2022-09-13T08:29:06.021Z,111.46
2022-09-13T08:30:05.111Z,111.46
2022-09-13T08:31:05.185Z,111.46
2022-09-13T08:32:05.091Z,111.13
2022-09-13T08:33:05.073Z,111.13
2022-09-13T08:34:05.131Z,111.78
2022-09-13T08:35:05.973Z,111.46
2022-09-13T08:36:05.052Z,110.49
2022-09-13T08:37:05.033Z,111.13
2022-09-13T08:38:05.021Z,112.10
2022-09-13T08:39:05.022Z,111.46
2022-09-13T08:40:05.040Z,111.78
2022-09-13T08:41:04.989Z,111.46
2022-09-13T08:42:06.911Z,111.13
2022-09-13T08:43:07.562Z,111.46
2022-09-13T08:44:04.983Z,111.78
2022-09-13T08:45:04.923Z,111.13
2022-09-13T08:46:04.965Z,111.13
2022-09-13T08:47:04.894Z,111.46
2022-09-13T08:48:04.884Z,111.46
2022-09-13T08:49:04.893Z,111.13
2022-09-13T08:50:04.853Z,111.46
2022-09-13T08:51:04.847Z,111.46
2022-09-13T08:52:04.842Z,111.46
2022-09-13T08:53:04.823Z,111.46
2022-09-13T08:54:04.842Z,111.46
2022-09-13T08:55:04.797Z,111.78
2022-09-13T08:56:04.784Z,111.46
2022-09-13T08:57:04.774Z,111.46
2022-09-13T08:58:06.213Z,111.78
2022-09-13T08:59:04.764Z,111.46
2022-09-13T09:00:04.738Z,111.46
2022-09-13T09:01:04.758Z,111.78
2022-09-13T09:02:04.705Z,111.46
2022-09-13T09:03:04.685Z,111.78
2022-09-13T09:04:04.846Z,111.46
2022-09-13T09:05:04.685Z,111.78
2022-09-13T09:06:04.665Z,111.78
2022-09-13T09:07:04.647Z,111.78
2022-09-13T09:08:04.646Z,111.46
2022-09-13T09:09:04.650Z,111.78
2022-09-13T09:10:04.607Z,111.78
2022-09-13T09:11:04.587Z,111.78
2022-09-13T09:12:04.577Z,111.78
2022-09-13T09:13:04.557Z,111.46
2022-09-13T09:14:06.034Z,111.78
2022-09-13T09:15:04.531Z,111.46
2022-09-13T09:16:04.557Z,111.46
2022-09-13T09:17:04.513Z,111.78
2022-09-13T09:18:04.503Z,111.78
2022-09-13T09:19:04.518Z,111.78
2022-09-13T09:20:04.470Z,111.78
2022-09-13T09:21:04.460Z,111.78
2022-09-13T09:22:04.455Z,111.78
2022-09-13T09:23:04.437Z,111.46
2022-09-13T09:24:04.449Z,111.78
2022-09-13T09:25:05.790Z,111.78
2022-09-13T09:26:04.400Z,112.10
2022-09-13T09:27:04.380Z,111.78
2022-09-13T09:28:04.371Z,111.46
2022-09-13T09:29:04.380Z,112.10
2022-09-13T09:30:05.788Z,112.10
2022-09-13T09:31:04.371Z,111.78
2022-09-13T09:32:04.320Z,111.78
2022-09-13T09:33:04.301Z,111.78
2022-09-13T09:34:04.318Z,111.78
2022-09-13T09:35:04.271Z,111.46
2022-09-13T09:36:04.270Z,112.10
2022-09-13T09:37:04.250Z,111.46
2022-09-13T09:38:04.242Z,112.10
2022-09-13T09:39:04.254Z,111.78
2022-09-13T09:40:04.254Z,111.78
2022-09-13T09:41:04.202Z,112.10
2022-09-13T09:42:04.182Z,112.10
2022-09-13T09:43:04.163Z,112.10
2022-09-13T09:44:04.185Z,112.10
2022-09-13T09:45:04.144Z,112.10
2022-09-13T09:46:04.661Z,112.10
2022-09-13T09:47:04.113Z,112.10
2022-09-13T09:48:04.121Z,112.10
2022-09-13T09:49:04.124Z,112.10
2022-09-13T09:50:04.084Z,111.78
2022-09-13T09:51:04.266Z,111.78
2022-09-13T09:52:04.055Z,112.10
2022-09-13T09:53:04.035Z,112.10
2022-09-13T09:54:04.057Z,111.78
2022-09-13T09:55:04.015Z,112.10
2022-09-13T09:56:04.009Z,111.46
2022-09-13T09:57:03.986Z,112.10
2022-09-13T09:58:03.975Z,112.10
2022-09-13T09:59:03.986Z,111.78
2022-09-13T10:00:03.947Z,111.78
2022-09-13T10:01:03.994Z,112.10
2022-09-13T10:02:05.403Z,112.10
2022-09-13T10:03:04.861Z,111.78
2022-09-13T10:04:05.691Z,112.10
2022-09-13T10:05:03.877Z,112.10
2022-09-13T10:06:03.879Z,111.46
2022-09-13T10:07:03.856Z,111.78
2022-09-13T10:08:03.838Z,112.42
2022-09-13T10:09:03.857Z,112.10
2022-09-13T10:10:03.809Z,112.10
2022-09-13T10:11:03.800Z,111.78
2022-09-13T10:12:03.789Z,112.10
2022-09-13T10:13:03.784Z,111.78
2022-09-13T10:14:03.789Z,111.78
2022-09-13T10:15:03.753Z,111.78
2022-09-13T10:16:03.745Z,112.10
2022-09-13T10:17:03.800Z,111.78
2022-09-13T10:18:04.399Z,112.10
2022-09-13T10:19:09.760Z,112.10
2022-09-13T10:20:04.684Z,111.78
2022-09-13T10:21:03.743Z,112.10
2022-09-13T10:22:03.668Z,111.78
2022-09-13T10:23:03.640Z,112.10
2022-09-13T10:24:03.671Z,111.46
2022-09-13T10:25:03.620Z,112.10
2022-09-13T10:26:03.612Z,111.78
2022-09-13T10:27:03.601Z,112.10
2022-09-13T10:28:04.530Z,112.10
2022-09-13T10:29:03.602Z,112.10
2022-09-13T10:30:03.558Z,111.78
2022-09-13T10:31:03.600Z,111.46
2022-09-13T10:32:03.533Z,112.10
2022-09-13T10:33:03.527Z,111.78
2022-09-13T10:34:07.582Z,111.78
2022-09-13T10:35:03.620Z,112.10
2022-09-13T10:36:03.473Z,112.10
2022-09-13T10:37:03.470Z,112.10
2022-09-13T10:38:03.456Z,111.78
2022-09-13T10:39:03.474Z,111.78
2022-09-13T10:40:03.493Z,111.46
2022-09-13T10:41:03.433Z,111.78
2022-09-13T10:42:04.863Z,112.10
2022-09-13T10:43:03.394Z,111.78
2022-09-13T10:44:07.743Z,112.10
2022-09-13T10:45:04.365Z,111.78
2022-09-13T10:46:03.386Z,111.78
2022-09-13T10:47:03.345Z,111.13
2022-09-13T10:48:03.325Z,112.10
2022-09-13T10:49:03.347Z,112.10
2022-09-13T10:50:03.295Z,111.46
2022-09-13T10:51:03.767Z,111.78
2022-09-13T10:52:03.277Z,112.10
2022-09-13T10:53:03.266Z,111.78
2022-09-13T10:54:03.276Z,111.78
2022-09-13T10:55:03.264Z,111.46
2022-09-13T10:56:03.254Z,112.10
2022-09-13T10:57:03.207Z,111.78
2022-09-13T10:58:03.329Z,112.10
2022-09-13T10:59:03.218Z,112.10
2022-09-13T11:00:03.168Z,111.78
2022-09-13T11:01:03.191Z,111.78
2022-09-13T11:02:03.137Z,111.78
2022-09-13T11:03:03.158Z,111.78
2022-09-13T11:04:03.353Z,111.78
2022-09-13T11:05:03.149Z,112.10
2022-09-13T11:06:03.097Z,111.78
2022-09-13T11:07:03.079Z,112.10
2022-09-13T11:08:03.079Z,111.78
2022-09-13T11:09:03.090Z,112.10
2022-09-13T11:10:03.041Z,111.78
2022-09-13T11:11:03.039Z,111.46
2022-09-13T11:12:03.013Z,112.10
2022-09-13T11:13:03.004Z,112.10
2022-09-13T11:14:03.002Z,112.10
2022-09-13T11:15:02.974Z,112.10
2022-09-13T11:16:02.961Z,112.10
2022-09-13T11:17:02.959Z,112.10
2022-09-13T11:18:02.930Z,112.10
2022-09-13T11:19:02.952Z,112.10
2022-09-13T11:20:02.903Z,112.42
2022-09-13T11:21:02.923Z,112.10
2022-09-13T11:22:08.071Z,112.10
2022-09-13T11:23:02.869Z,112.10
2022-09-13T11:24:02.879Z,112.10
2022-09-13T11:25:02.855Z,112.10
2022-09-13T11:26:02.824Z,112.10
2022-09-13T11:27:02.814Z,112.10
2022-09-13T11:28:02.794Z,112.10
2022-09-13T11:29:02.818Z,112.10
2022-09-13T11:30:02.783Z,112.10
2022-09-13T11:31:02.754Z,112.10
2022-09-13T11:32:02.793Z,112.10
2022-09-13T11:33:02.735Z,112.42
2022-09-13T11:34:02.748Z,112.10
2022-09-13T11:35:02.720Z,112.10
2022-09-13T11:36:02.696Z,112.10
2022-09-13T11:37:02.692Z,112.10
2022-09-13T11:38:04.626Z,112.10
2022-09-13T11:39:02.732Z,111.78
2022-09-13T11:40:09.798Z,112.42
2022-09-13T11:41:02.650Z,112.10
2022-09-13T11:42:02.629Z,112.10
2022-09-13T11:43:02.618Z,111.78
2022-09-13T11:44:02.618Z,112.10
2022-09-13T11:45:02.588Z,112.42
2022-09-13T11:46:02.629Z,111.78
2022-09-13T11:47:02.556Z,112.10
2022-09-13T11:48:02.779Z,112.10
2022-09-13T11:49:02.563Z,112.10
2022-09-13T11:50:02.509Z,111.78
2022-09-13T11:51:02.509Z,112.10
2022-09-13T11:52:02.479Z,112.10
2022-09-13T11:53:02.579Z,112.10
2022-09-13T11:54:03.947Z,111.78
2022-09-13T11:55:02.449Z,112.42
2022-09-13T11:56:02.440Z,112.42
2022-09-13T11:57:02.444Z,112.10
2022-09-13T11:58:02.428Z,111.78
2022-09-13T11:59:02.424Z,112.10
2022-09-13T12:00:02.389Z,112.10
2022-09-13T12:01:02.382Z,111.78
2022-09-13T12:02:02.441Z,112.10
2022-09-13T12:03:02.448Z,111.78
2022-09-13T12:04:02.358Z,112.42
2022-09-13T12:05:21.683Z,112.42
2022-09-13T12:06:03.302Z,112.42
2022-09-13T12:07:02.302Z,112.42
2022-09-13T12:08:02.278Z,112.42
2022-09-13T12:09:02.303Z,112.10
2022-09-13T12:10:02.270Z,112.10
2022-09-13T12:11:02.244Z,112.10
2022-09-13T12:12:02.224Z,112.42
2022-09-13T12:13:02.214Z,112.10
2022-09-13T12:14:02.225Z,112.10
2022-09-13T12:15:02.185Z,111.78
2022-09-13T12:16:02.190Z,111.78
2022-09-13T12:17:02.284Z,112.42
2022-09-13T12:18:02.145Z,112.10
2022-09-13T12:19:02.166Z,112.10
2022-09-13T12:20:02.119Z,112.10
2022-09-13T12:21:02.113Z,112.42
2022-09-13T12:22:02.096Z,112.10
2022-09-13T12:23:02.095Z,112.42
2022-09-13T12:24:02.107Z,112.42
2022-09-13T12:25:02.859Z,112.42
2022-09-13T12:26:02.055Z,112.10
2022-09-13T12:27:02.028Z,112.10
2022-09-13T12:28:02.017Z,112.42